FLY weather

Meadow Lake Airport
Colorado Springs, Colorado, United States

Public forecast

Using degrees Fahrenheit for public forecast. Weather courtesy of forecast.io.

Current aviation weather report (METAR) for Meadow Lake Airport

Retrieved 2019/10/19 16:35 UTC (0 seconds ago):

KFLY 191635Z AUTO 20010G22KT 10SM CLR 08/M07 A3002 RMK AO2 T00821068

Closest aviation forecast (TAF) to Meadow Lake Airport

Closest forecast is City of Colorado Springs Municipal Airport, 10.4 nm (19.3 km) SW. Retrieved 2019/10/19 12:22 UTC (4 hours ago):

TAF KCOS 191120Z 1912/2012 09005KT P6SM SKC FM191600 18007KT P6SM SKC FM192000 19014G25KT P6SM FEW090 FM200200 16010KT P6SM SKC FM200400 07008KT P6SM FEW200 FM200900 32015G25KT P6SM BKN200